sensor_id;sensor_type;location;lat;lon;timestamp;P1;durP1;ratioP1;P2;durP2;ratioP2
21827;SDS011;11076;47.942;11.804;2023-05-07T00:03:50;7.05;;;5.65;;
21827;SDS011;11076;47.942;11.804;2023-05-07T00:08:52;8.70;;;5.40;;
21827;SDS011;11076;47.942;11.804;2023-05-07T00:13:55;11.68;;;5.35;;
21827;SDS011;11076;47.942;11.804;2023-05-07T00:18:57;10.88;;;5.85;;
21827;SDS011;11076;47.942;11.804;2023-05-07T00:24:00;10.05;;;5.70;;
21827;SDS011;11076;47.942;11.804;2023-05-07T00:29:02;7.07;;;5.53;;
21827;SDS011;11076;47.942;11.804;2023-05-07T00:34:04;7.72;;;5.97;;
21827;SDS011;11076;47.942;11.804;2023-05-07T00:39:07;6.75;;;5.68;;
21827;SDS011;11076;47.942;11.804;2023-05-07T00:44:10;7.07;;;5.55;;
21827;SDS011;11076;47.942;11.804;2023-05-07T00:49:12;8.75;;;5.43;;
21827;SDS011;11076;47.942;11.804;2023-05-07T00:54:15;6.80;;;5.25;;
21827;SDS011;11076;47.942;11.804;2023-05-07T00:59:17;6.32;;;5.13;;
21827;SDS011;11076;47.942;11.804;2023-05-07T01:04:19;8.57;;;5.45;;
21827;SDS011;11076;47.942;11.804;2023-05-07T01:09:25;8.25;;;5.40;;
21827;SDS011;11076;47.942;11.804;2023-05-07T01:14:28;8.48;;;6.22;;
21827;SDS011;11076;47.942;11.804;2023-05-07T01:19:31;7.55;;;6.07;;
21827;SDS011;11076;47.942;11.804;2023-05-07T01:24:35;11.65;;;5.72;;
21827;SDS011;11076;47.942;11.804;2023-05-07T01:29:40;6.57;;;5.53;;
21827;SDS011;11076;47.942;11.804;2023-05-07T01:34:42;10.27;;;5.95;;
21827;SDS011;11076;47.942;11.804;2023-05-07T01:39:48;5.65;;;5.10;;
21827;SDS011;11076;47.942;11.804;2023-05-07T01:44:51;9.25;;;4.72;;
21827;SDS011;11076;47.942;11.804;2023-05-07T01:49:54;5.85;;;4.65;;
21827;SDS011;11076;47.942;11.804;2023-05-07T01:54:57;7.40;;;5.50;;
21827;SDS011;11076;47.942;11.804;2023-05-07T01:59:59;9.65;;;5.15;;
21827;SDS011;11076;47.942;11.804;2023-05-07T02:05:01;4.82;;;3.88;;
21827;SDS011;11076;47.942;11.804;2023-05-07T02:10:05;5.25;;;4.70;;
21827;SDS011;11076;47.942;11.804;2023-05-07T02:15:08;4.53;;;4.13;;
21827;SDS011;11076;47.942;11.804;2023-05-07T02:20:12;5.10;;;4.65;;
21827;SDS011;11076;47.942;11.804;2023-05-07T02:25:16;7.72;;;3.97;;
21827;SDS011;11076;47.942;11.804;2023-05-07T02:30:19;5.63;;;5.03;;
21827;SDS011;11076;47.942;11.804;2023-05-07T02:35:26;11.45;;;4.88;;
21827;SDS011;11076;47.942;11.804;2023-05-07T02:40:28;4.70;;;4.18;;
21827;SDS011;11076;47.942;11.804;2023-05-07T02:45:31;5.85;;;5.05;;
21827;SDS011;11076;47.942;11.804;2023-05-07T02:50:36;7.90;;;5.47;;
21827;SDS011;11076;47.942;11.804;2023-05-07T02:55:38;5.68;;;4.95;;
21827;SDS011;11076;47.942;11.804;2023-05-07T03:00:41;9.43;;;5.20;;
21827;SDS011;11076;47.942;11.804;2023-05-07T03:06:00;11.32;;;4.50;;
21827;SDS011;11076;47.942;11.804;2023-05-07T03:11:02;6.10;;;4.40;;
21827;SDS011;11076;47.942;11.804;2023-05-07T03:16:05;6.30;;;5.70;;
21827;SDS011;11076;47.942;11.804;2023-05-07T03:21:07;9.13;;;5.65;;
21827;SDS011;11076;47.942;11.804;2023-05-07T03:26:10;9.00;;;5.13;;
21827;SDS011;11076;47.942;11.804;2023-05-07T03:31:12;9.50;;;5.25;;
21827;SDS011;11076;47.942;11.804;2023-05-07T03:36:15;8.20;;;6.30;;
21827;SDS011;11076;47.942;11.804;2023-05-07T03:41:18;5.10;;;4.70;;
21827;SDS011;11076;47.942;11.804;2023-05-07T03:46:20;5.60;;;3.90;;
21827;SDS011;11076;47.942;11.804;2023-05-07T03:51:23;5.95;;;4.60;;
21827;SDS011;11076;47.942;11.804;2023-05-07T03:56:25;6.47;;;5.18;;
21827;SDS011;11076;47.942;11.804;2023-05-07T04:01:31;4.95;;;4.45;;
21827;SDS011;11076;47.942;11.804;2023-05-07T04:06:34;5.97;;;5.38;;
21827;SDS011;11076;47.942;11.804;2023-05-07T04:11:36;7.07;;;5.40;;
21827;SDS011;11076;47.942;11.804;2023-05-07T04:16:40;12.55;;;5.78;;
21827;SDS011;11076;47.942;11.804;2023-05-07T04:21:43;6.22;;;4.75;;
21827;SDS011;11076;47.942;11.804;2023-05-07T04:26:45;5.30;;;4.43;;
21827;SDS011;11076;47.942;11.804;2023-05-07T04:31:48;7.43;;;5.28;;
21827;SDS011;11076;47.942;11.804;2023-05-07T04:36:50;5.57;;;5.07;;
21827;SDS011;11076;47.942;11.804;2023-05-07T04:41:53;5.20;;;4.70;;
21827;SDS011;11076;47.942;11.804;2023-05-07T04:46:56;5.57;;;4.32;;
21827;SDS011;11076;47.942;11.804;2023-05-07T04:51:59;6.43;;;4.90;;
21827;SDS011;11076;47.942;11.804;2023-05-07T04:57:03;16.23;;;5.22;;
21827;SDS011;11076;47.942;11.804;2023-05-07T05:02:06;10.85;;;4.40;;
21827;SDS011;11076;47.942;11.804;2023-05-07T05:07:09;8.50;;;4.10;;
21827;SDS011;11076;47.942;11.804;2023-05-07T05:12:11;4.90;;;3.90;;
21827;SDS011;11076;47.942;11.804;2023-05-07T05:17:14;4.30;;;4.00;;
21827;SDS011;11076;47.942;11.804;2023-05-07T05:22:17;5.22;;;3.75;;
21827;SDS011;11076;47.942;11.804;2023-05-07T05:27:19;3.50;;;3.20;;
21827;SDS011;11076;47.942;11.804;2023-05-07T05:32:21;4.28;;;2.85;;
21827;SDS011;11076;47.942;11.804;2023-05-07T05:37:25;4.45;;;3.15;;
21827;SDS011;11076;47.942;11.804;2023-05-07T05:42:29;3.70;;;3.38;;
21827;SDS011;11076;47.942;11.804;2023-05-07T05:47:32;5.47;;;2.80;;
21827;SDS011;11076;47.942;11.804;2023-05-07T05:52:35;6.15;;;2.83;;
21827;SDS011;11076;47.942;11.804;2023-05-07T05:57:37;5.13;;;2.85;;
21827;SDS011;11076;47.942;11.804;2023-05-07T06:02:40;4.15;;;2.95;;
21827;SDS011;11076;47.942;11.804;2023-05-07T06:07:42;6.57;;;2.92;;
21827;SDS011;11076;47.942;11.804;2023-05-07T06:12:45;3.97;;;2.70;;
21827;SDS011;11076;47.942;11.804;2023-05-07T06:17:48;2.58;;;2.17;;
21827;SDS011;11076;47.942;11.804;2023-05-07T06:22:51;4.90;;;2.45;;
21827;SDS011;11076;47.942;11.804;2023-05-07T06:27:53;4.55;;;2.70;;
21827;SDS011;11076;47.942;11.804;2023-05-07T06:32:57;3.25;;;2.60;;
21827;SDS011;11076;47.942;11.804;2023-05-07T06:38:01;2.40;;;2.30;;
21827;SDS011;11076;47.942;11.804;2023-05-07T06:43:04;3.28;;;2.45;;
21827;SDS011;11076;47.942;11.804;2023-05-07T06:48:20;12.57;;;2.50;;
21827;SDS011;11076;47.942;11.804;2023-05-07T06:53:33;3.33;;;2.15;;
21827;SDS011;11076;47.942;11.804;2023-05-07T06:58:38;2.90;;;2.47;;
21827;SDS011;11076;47.942;11.804;2023-05-07T07:03:42;4.03;;;2.75;;
21827;SDS011;11076;47.942;11.804;2023-05-07T07:08:44;3.05;;;2.60;;
21827;SDS011;11076;47.942;11.804;2023-05-07T07:13:50;3.83;;;3.22;;
21827;SDS011;11076;47.942;11.804;2023-05-07T07:18:52;5.15;;;3.58;;
21827;SDS011;11076;47.942;11.804;2023-05-07T07:23:55;5.47;;;3.97;;
21827;SDS011;11076;47.942;11.804;2023-05-07T07:28:58;4.47;;;3.40;;
21827;SDS011;11076;47.942;11.804;2023-05-07T07:34:00;4.88;;;2.95;;
21827;SDS011;11076;47.942;11.804;2023-05-07T07:39:03;3.65;;;2.97;;
21827;SDS011;11076;47.942;11.804;2023-05-07T07:44:07;5.55;;;2.55;;
21827;SDS011;11076;47.942;11.804;2023-05-07T07:49:12;4.57;;;2.55;;
21827;SDS011;11076;47.942;11.804;2023-05-07T07:54:14;9.05;;;2.63;;
21827;SDS011;11076;47.942;11.804;2023-05-07T07:59:17;3.35;;;3.05;;
21827;SDS011;11076;47.942;11.804;2023-05-07T08:04:22;3.38;;;2.80;;
21827;SDS011;11076;47.942;11.804;2023-05-07T08:09:26;8.00;;;2.60;;
21827;SDS011;11076;47.942;11.804;2023-05-07T08:14:33;3.25;;;2.92;;
21827;SDS011;11076;47.942;11.804;2023-05-07T08:19:36;3.15;;;2.88;;
21827;SDS011;11076;47.942;11.804;2023-05-07T08:24:41;4.55;;;3.10;;
21827;SDS011;11076;47.942;11.804;2023-05-07T08:29:45;3.65;;;2.83;;
21827;SDS011;11076;47.942;11.804;2023-05-07T08:34:50;5.10;;;3.20;;
21827;SDS011;11076;47.942;11.804;2023-05-07T08:39:53;4.32;;;3.00;;
21827;SDS011;11076;47.942;11.804;2023-05-07T08:44:59;3.63;;;3.30;;
21827;SDS011;11076;47.942;11.804;2023-05-07T08:50:02;4.18;;;3.20;;
21827;SDS011;11076;47.942;11.804;2023-05-07T08:55:07;8.10;;;3.65;;
21827;SDS011;11076;47.942;11.804;2023-05-07T09:00:11;7.85;;;3.42;;
21827;SDS011;11076;47.942;11.804;2023-05-07T09:05:16;3.95;;;2.90;;
21827;SDS011;11076;47.942;11.804;2023-05-07T09:10:19;3.60;;;3.30;;
21827;SDS011;11076;47.942;11.804;2023-05-07T09:15:23;4.68;;;3.55;;
21827;SDS011;11076;47.942;11.804;2023-05-07T09:20:25;3.78;;;3.45;;
21827;SDS011;11076;47.942;11.804;2023-05-07T09:25:31;9.55;;;3.60;;
21827;SDS011;11076;47.942;11.804;2023-05-07T09:30:39;6.60;;;3.13;;
21827;SDS011;11076;47.942;11.804;2023-05-07T09:35:45;4.20;;;3.40;;
21827;SDS011;11076;47.942;11.804;2023-05-07T09:41:08;5.88;;;3.72;;
21827;SDS011;11076;47.942;11.804;2023-05-07T09:46:38;4.85;;;4.30;;
21827;SDS011;11076;47.942;11.804;2023-05-07T09:51:50;9.25;;;4.00;;
21827;SDS011;11076;47.942;11.804;2023-05-07T09:56:57;3.08;;;2.75;;
21827;SDS011;11076;47.942;11.804;2023-05-07T10:02:03;4.50;;;2.70;;
21827;SDS011;11076;47.942;11.804;2023-05-07T10:07:13;7.70;;;4.28;;
21827;SDS011;11076;47.942;11.804;2023-05-07T10:12:16;2.83;;;2.40;;
21827;SDS011;11076;47.942;11.804;2023-05-07T10:17:20;3.83;;;2.83;;
21827;SDS011;11076;47.942;11.804;2023-05-07T10:22:25;5.60;;;3.00;;
21827;SDS011;11076;47.942;11.804;2023-05-07T10:27:29;5.63;;;2.25;;
21827;SDS011;11076;47.942;11.804;2023-05-07T10:37:46;6.22;;;2.92;;
21827;SDS011;11076;47.942;11.804;2023-05-07T10:42:53;5.50;;;2.90;;
21827;SDS011;11076;47.942;11.804;2023-05-07T10:53:25;2.67;;;2.45;;
21827;SDS011;11076;47.942;11.804;2023-05-07T10:58:52;10.48;;;2.08;;
21827;SDS011;11076;47.942;11.804;2023-05-07T11:04:16;2.03;;;1.77;;
21827;SDS011;11076;47.942;11.804;2023-05-07T11:15:10;2.17;;;1.70;;
21827;SDS011;11076;47.942;11.804;2023-05-07T11:20:14;2.30;;;1.77;;
21827;SDS011;11076;47.942;11.804;2023-05-07T11:25:24;2.00;;;1.90;;
21827;SDS011;11076;47.942;11.804;2023-05-07T11:30:33;2.20;;;2.00;;
21827;SDS011;11076;47.942;11.804;2023-05-07T11:35:37;3.42;;;2.17;;
21827;SDS011;11076;47.942;11.804;2023-05-07T11:40:53;5.80;;;2.35;;
21827;SDS011;11076;47.942;11.804;2023-05-07T11:46:04;4.13;;;1.90;;
21827;SDS011;11076;47.942;11.804;2023-05-07T11:51:10;2.90;;;2.08;;
21827;SDS011;11076;47.942;11.804;2023-05-07T11:56:17;4.22;;;1.65;;
21827;SDS011;11076;47.942;11.804;2023-05-07T12:01:20;4.03;;;2.10;;
21827;SDS011;11076;47.942;11.804;2023-05-07T12:06:23;3.10;;;1.83;;
21827;SDS011;11076;47.942;11.804;2023-05-07T12:11:25;3.15;;;1.92;;
21827;SDS011;11076;47.942;11.804;2023-05-07T12:16:28;7.50;;;2.20;;
21827;SDS011;11076;47.942;11.804;2023-05-07T12:21:31;2.78;;;2.00;;
21827;SDS011;11076;47.942;11.804;2023-05-07T12:26:37;17.80;;;9.70;;
21827;SDS011;11076;47.942;11.804;2023-05-07T12:31:40;3.15;;;2.75;;
21827;SDS011;11076;47.942;11.804;2023-05-07T12:36:43;3.40;;;2.30;;
21827;SDS011;11076;47.942;11.804;2023-05-07T12:41:56;5.43;;;2.58;;
21827;SDS011;11076;47.942;11.804;2023-05-07T12:47:02;5.32;;;2.83;;
21827;SDS011;11076;47.942;11.804;2023-05-07T12:52:05;2.50;;;2.30;;
21827;SDS011;11076;47.942;11.804;2023-05-07T12:57:08;4.40;;;2.92;;
21827;SDS011;11076;47.942;11.804;2023-05-07T13:02:11;4.60;;;2.35;;
21827;SDS011;11076;47.942;11.804;2023-05-07T13:07:15;4.93;;;2.70;;
21827;SDS011;11076;47.942;11.804;2023-05-07T13:12:18;4.35;;;2.30;;
21827;SDS011;11076;47.942;11.804;2023-05-07T13:17:20;4.57;;;2.65;;
21827;SDS011;11076;47.942;11.804;2023-05-07T13:22:23;2.78;;;2.53;;
21827;SDS011;11076;47.942;11.804;2023-05-07T13:27:25;5.28;;;2.40;;
21827;SDS011;11076;47.942;11.804;2023-05-07T13:32:28;2.55;;;2.35;;
21827;SDS011;11076;47.942;11.804;2023-05-07T13:37:30;3.60;;;3.00;;
21827;SDS011;11076;47.942;11.804;2023-05-07T13:42:32;3.35;;;2.38;;
21827;SDS011;11076;47.942;11.804;2023-05-07T13:47:35;2.60;;;2.40;;
21827;SDS011;11076;47.942;11.804;2023-05-07T13:52:41;2.90;;;2.22;;
21827;SDS011;11076;47.942;11.804;2023-05-07T13:57:46;5.03;;;2.47;;
21827;SDS011;11076;47.942;11.804;2023-05-07T14:02:49;3.78;;;2.33;;
21827;SDS011;11076;47.942;11.804;2023-05-07T14:07:51;4.93;;;2.63;;
21827;SDS011;11076;47.942;11.804;2023-05-07T14:12:54;4.53;;;3.25;;
21827;SDS011;11076;47.942;11.804;2023-05-07T14:17:57;3.78;;;2.78;;
21827;SDS011;11076;47.942;11.804;2023-05-07T14:23:01;5.25;;;3.17;;
21827;SDS011;11076;47.942;11.804;2023-05-07T14:28:03;2.60;;;2.40;;
21827;SDS011;11076;47.942;11.804;2023-05-07T14:33:05;3.95;;;2.58;;
21827;SDS011;11076;47.942;11.804;2023-05-07T14:38:08;4.60;;;2.85;;
21827;SDS011;11076;47.942;11.804;2023-05-07T14:43:10;4.20;;;2.20;;
21827;SDS011;11076;47.942;11.804;2023-05-07T14:48:12;10.68;;;3.05;;
21827;SDS011;11076;47.942;11.804;2023-05-07T14:53:17;2.58;;;2.38;;
21827;SDS011;11076;47.942;11.804;2023-05-07T14:58:19;3.90;;;1.98;;
21827;SDS011;11076;47.942;11.804;2023-05-07T15:03:21;4.50;;;2.10;;
21827;SDS011;11076;47.942;11.804;2023-05-07T15:08:25;2.85;;;2.15;;
21827;SDS011;11076;47.942;11.804;2023-05-07T15:13:28;3.00;;;2.72;;
21827;SDS011;11076;47.942;11.804;2023-05-07T15:18:31;3.13;;;2.40;;
21827;SDS011;11076;47.942;11.804;2023-05-07T15:23:33;3.75;;;2.22;;
21827;SDS011;11076;47.942;11.804;2023-05-07T15:28:35;2.85;;;2.35;;
21827;SDS011;11076;47.942;11.804;2023-05-07T15:33:38;2.85;;;1.98;;
21827;SDS011;11076;47.942;11.804;2023-05-07T15:38:40;6.28;;;2.40;;
21827;SDS011;11076;47.942;11.804;2023-05-07T15:43:44;4.15;;;2.15;;
21827;SDS011;11076;47.942;11.804;2023-05-07T15:48:49;2.83;;;1.92;;
21827;SDS011;11076;47.942;11.804;2023-05-07T15:53:51;2.55;;;1.88;;
21827;SDS011;11076;47.942;11.804;2023-05-07T15:58:54;4.22;;;2.38;;
21827;SDS011;11076;47.942;11.804;2023-05-07T16:03:57;2.67;;;2.08;;
21827;SDS011;11076;47.942;11.804;2023-05-07T16:08:59;1.73;;;1.63;;
21827;SDS011;11076;47.942;11.804;2023-05-07T16:14:02;11.23;;;1.77;;
21827;SDS011;11076;47.942;11.804;2023-05-07T16:19:04;1.63;;;1.33;;
21827;SDS011;11076;47.942;11.804;2023-05-07T16:24:07;1.25;;;1.13;;
21827;SDS011;11076;47.942;11.804;2023-05-07T16:29:09;5.55;;;1.85;;
21827;SDS011;11076;47.942;11.804;2023-05-07T16:34:12;2.72;;;1.25;;
21827;SDS011;11076;47.942;11.804;2023-05-07T16:39:15;1.90;;;1.30;;
21827;SDS011;11076;47.942;11.804;2023-05-07T16:44:18;1.65;;;1.27;;
21827;SDS011;11076;47.942;11.804;2023-05-07T16:49:20;1.50;;;1.40;;
21827;SDS011;11076;47.942;11.804;2023-05-07T16:54:22;2.03;;;1.35;;
21827;SDS011;11076;47.942;11.804;2023-05-07T16:59:25;2.30;;;1.73;;
21827;SDS011;11076;47.942;11.804;2023-05-07T17:04:27;8.25;;;2.05;;
21827;SDS011;11076;47.942;11.804;2023-05-07T17:09:30;2.92;;;2.08;;
21827;SDS011;11076;47.942;11.804;2023-05-07T17:14:33;2.38;;;1.65;;
21827;SDS011;11076;47.942;11.804;2023-05-07T17:19:36;4.15;;;1.80;;
21827;SDS011;11076;47.942;11.804;2023-05-07T17:24:40;5.18;;;1.85;;
21827;SDS011;11076;47.942;11.804;2023-05-07T17:29:43;4.22;;;2.50;;
21827;SDS011;11076;47.942;11.804;2023-05-07T17:34:45;5.30;;;1.60;;
21827;SDS011;11076;47.942;11.804;2023-05-07T17:39:47;4.95;;;2.85;;
21827;SDS011;11076;47.942;11.804;2023-05-07T17:44:50;2.05;;;1.70;;
21827;SDS011;11076;47.942;11.804;2023-05-07T17:49:52;4.03;;;2.28;;
21827;SDS011;11076;47.942;11.804;2023-05-07T17:54:54;3.42;;;2.00;;
21827;SDS011;11076;47.942;11.804;2023-05-07T17:59:57;3.13;;;2.30;;
21827;SDS011;11076;47.942;11.804;2023-05-07T18:04:59;3.05;;;2.40;;
21827;SDS011;11076;47.942;11.804;2023-05-07T18:10:01;3.58;;;2.30;;
21827;SDS011;11076;47.942;11.804;2023-05-07T18:15:04;8.43;;;4.50;;
21827;SDS011;11076;47.942;11.804;2023-05-07T18:20:07;6.88;;;3.00;;
21827;SDS011;11076;47.942;11.804;2023-05-07T18:25:12;5.03;;;2.85;;
21827;SDS011;11076;47.942;11.804;2023-05-07T18:30:14;4.10;;;2.47;;
21827;SDS011;11076;47.942;11.804;2023-05-07T18:35:17;5.47;;;2.80;;
21827;SDS011;11076;47.942;11.804;2023-05-07T18:40:20;2.90;;;2.60;;
21827;SDS011;11076;47.942;11.804;2023-05-07T18:45:22;4.03;;;2.58;;
21827;SDS011;11076;47.942;11.804;2023-05-07T18:50:24;3.00;;;2.70;;
21827;SDS011;11076;47.942;11.804;2023-05-07T18:55:27;5.22;;;2.17;;
21827;SDS011;11076;47.942;11.804;2023-05-07T19:00:29;3.17;;;2.20;;
21827;SDS011;11076;47.942;11.804;2023-05-07T19:05:31;3.17;;;2.83;;
21827;SDS011;11076;47.942;11.804;2023-05-07T19:10:34;2.53;;;2.33;;
21827;SDS011;11076;47.942;11.804;2023-05-07T19:15:36;3.92;;;2.72;;
21827;SDS011;11076;47.942;11.804;2023-05-07T19:20:39;3.00;;;2.70;;
21827;SDS011;11076;47.942;11.804;2023-05-07T19:25:41;3.03;;;2.13;;
21827;SDS011;11076;47.942;11.804;2023-05-07T19:30:43;5.55;;;3.30;;
21827;SDS011;11076;47.942;11.804;2023-05-07T19:35:46;3.20;;;2.67;;
21827;SDS011;11076;47.942;11.804;2023-05-07T19:40:48;4.10;;;2.95;;
21827;SDS011;11076;47.942;11.804;2023-05-07T19:45:51;3.40;;;2.63;;
21827;SDS011;11076;47.942;11.804;2023-05-07T19:50:54;2.70;;;2.50;;
21827;SDS011;11076;47.942;11.804;2023-05-07T19:56:03;3.08;;;2.65;;
21827;SDS011;11076;47.942;11.804;2023-05-07T20:01:06;3.90;;;3.50;;
21827;SDS011;11076;47.942;11.804;2023-05-07T20:06:08;3.75;;;3.08;;
21827;SDS011;11076;47.942;11.804;2023-05-07T20:11:11;3.35;;;3.05;;
21827;SDS011;11076;47.942;11.804;2023-05-07T20:16:15;3.90;;;2.90;;
21827;SDS011;11076;47.942;11.804;2023-05-07T20:21:17;4.93;;;3.47;;
21827;SDS011;11076;47.942;11.804;2023-05-07T20:26:19;4.28;;;3.58;;
21827;SDS011;11076;47.942;11.804;2023-05-07T20:31:22;11.25;;;3.30;;
21827;SDS011;11076;47.942;11.804;2023-05-07T20:36:24;3.95;;;3.25;;
21827;SDS011;11076;47.942;11.804;2023-05-07T20:41:27;4.43;;;4.03;;
21827;SDS011;11076;47.942;11.804;2023-05-07T20:46:29;7.55;;;3.95;;
21827;SDS011;11076;47.942;11.804;2023-05-07T20:51:32;4.15;;;3.75;;
21827;SDS011;11076;47.942;11.804;2023-05-07T20:56:34;4.80;;;4.07;;
21827;SDS011;11076;47.942;11.804;2023-05-07T21:01:36;5.35;;;4.35;;
21827;SDS011;11076;47.942;11.804;2023-05-07T21:06:41;5.03;;;4.53;;
21827;SDS011;11076;47.942;11.804;2023-05-07T21:11:44;5.07;;;4.00;;
21827;SDS011;11076;47.942;11.804;2023-05-07T21:16:46;5.05;;;4.55;;
21827;SDS011;11076;47.942;11.804;2023-05-07T21:21:49;5.82;;;4.82;;
21827;SDS011;11076;47.942;11.804;2023-05-07T21:26:54;6.88;;;5.65;;
21827;SDS011;11076;47.942;11.804;2023-05-07T21:31:57;7.45;;;5.80;;
21827;SDS011;11076;47.942;11.804;2023-05-07T21:36:59;10.13;;;6.43;;
21827;SDS011;11076;47.942;11.804;2023-05-07T21:42:01;7.05;;;6.25;;
21827;SDS011;11076;47.942;11.804;2023-05-07T21:47:04;9.52;;;6.57;;
21827;SDS011;11076;47.942;11.804;2023-05-07T21:52:10;12.10;;;5.63;;
21827;SDS011;11076;47.942;11.804;2023-05-07T21:57:13;8.68;;;5.75;;
21827;SDS011;11076;47.942;11.804;2023-05-07T22:02:16;6.47;;;5.72;;
21827;SDS011;11076;47.942;11.804;2023-05-07T22:07:18;7.35;;;6.15;;
21827;SDS011;11076;47.942;11.804;2023-05-07T22:12:20;6.97;;;5.57;;
21827;SDS011;11076;47.942;11.804;2023-05-07T22:17:23;9.20;;;5.93;;
21827;SDS011;11076;47.942;11.804;2023-05-07T22:22:25;6.50;;;5.43;;
21827;SDS011;11076;47.942;11.804;2023-05-07T22:27:28;6.93;;;5.82;;
21827;SDS011;11076;47.942;11.804;2023-05-07T22:32:32;6.53;;;5.82;;
21827;SDS011;11076;47.942;11.804;2023-05-07T22:37:34;9.75;;;5.72;;
21827;SDS011;11076;47.942;11.804;2023-05-07T22:42:37;10.85;;;6.07;;
21827;SDS011;11076;47.942;11.804;2023-05-07T22:47:39;12.38;;;5.82;;
21827;SDS011;11076;47.942;11.804;2023-05-07T22:52:41;8.70;;;6.32;;
21827;SDS011;11076;47.942;11.804;2023-05-07T22:57:44;9.93;;;6.85;;
21827;SDS011;11076;47.942;11.804;2023-05-07T23:02:46;9.18;;;6.85;;
21827;SDS011;11076;47.942;11.804;2023-05-07T23:07:49;11.15;;;6.53;;
21827;SDS011;11076;47.942;11.804;2023-05-07T23:12:51;6.30;;;5.57;;
21827;SDS011;11076;47.942;11.804;2023-05-07T23:17:54;9.05;;;6.53;;
21827;SDS011;11076;47.942;11.804;2023-05-07T23:22:57;10.00;;;7.65;;
21827;SDS011;11076;47.942;11.804;2023-05-07T23:27:59;8.85;;;7.00;;
21827;SDS011;11076;47.942;11.804;2023-05-07T23:33:02;9.13;;;6.95;;
21827;SDS011;11076;47.942;11.804;2023-05-07T23:38:04;10.20;;;7.50;;
21827;SDS011;11076;47.942;11.804;2023-05-07T23:43:07;9.25;;;7.30;;
21827;SDS011;11076;47.942;11.804;2023-05-07T23:48:09;9.00;;;6.45;;
21827;SDS011;11076;47.942;11.804;2023-05-07T23:53:11;8.45;;;6.75;;
21827;SDS011;11076;47.942;11.804;2023-05-07T23:58:14;12.85;;;7.50;;
